Houwa Maru — JL6394 — position and weather

sailwx.info

Track history (hours):
 
Tides and Currents Weather Stations Pressure Air Temp Water Temp Dewpoint Dewpoint Depression Visibility Wind Speed Wind Dir Waves Ship Positions

Houwa Maru

Last reported at 2014-Sep-14 22:20 UTC. Time now 2014-Sep-18 13:43 UTC.
Position N 35°60' E 140°43'.

Length 76 m.

Type: Ship. MMSI: 431500378.

Date/timePositionNaut miles runAvg speedWind from/ knotsBaromVisibWave heightAir tempDewpointWater temp
2014-Sep-14 22:20N 35°60' E 140°43'0 0.0
2014-Sep-14 21:23N 35°60' E 140°43'0 0.0
2014-Sep-14 20:32N 35°60' E 140°43'0 0.0
2014-Sep-14 19:32N 35°60' E 140°43'0 0.0
2014-Sep-14 18:22N 35°60' E 140°43'0 0.0
2014-Sep-14 17:31N 35°60' E 140°43'0 0.0
2014-Sep-14 16:29N 35°60' E 140°43'0 0.0
2014-Sep-14 15:33N 35°60' E 140°43'  
2014-Sep-11 03:31N 35°02' E 140°12'24 6.1
2014-Sep-10 23:33N 35°14' E 139°46'5 0.9
2014-Sep-10 17:29N 35°17' E 139°41'0 0.0
2014-Sep-10 12:29N 35°17' E 139°41'0 0.0
2014-Sep-10 11:17N 35°17' E 139°41'0 0.0
2014-Sep-10 10:29N 35°17' E 139°41'0 0.0
2014-Sep-10 09:29N 35°17' E 139°41'0 0.0
2014-Sep-10 08:29N 35°17' E 139°41'0 0.0
2014-Sep-10 07:29N 35°17' E 139°41'0 0.0
2014-Sep-10 01:29N 35°17' E 139°41'2 1.8
2014-Sep-10 00:08N 35°19' E 139°40'0 0.0
2014-Sep-09 23:20N 35°19' E 139°40'0 0.0
2014-Sep-09 21:26N 35°19' E 139°40'0 0.4
2014-Sep-09 20:22N 35°19' E 139°40'0 0.1
2014-Sep-09 19:11N 35°19' E 139°40'0 0.0
2014-Sep-09 15:32N 35°19' E 139°40'0 0.0
2014-Sep-09 13:26N 35°19' E 139°40'3 0.5
2014-Sep-09 07:33N 35°22' E 139°42'1111.5
2014-Sep-09 06:33N 35°31' E 139°50'7 6.5
2014-Sep-09 05:31N 35°38' E 139°48'0 0.0
2014-Sep-09 04:19N 35°38' E 139°48'0 0.0
2014-Sep-09 03:31N 35°38' E 139°48'0 0.1
2014-Sep-09 02:31N 35°38' E 139°48'0 0.0
2014-Sep-09 01:22N 35°38' E 139°48'0 0.1
2014-Sep-09 00:29N 35°38' E 139°48'0 0.1
2014-Sep-08 23:32N 35°38' E 139°48'4 3.6
2014-Sep-08 22:33N 35°35' E 139°51'0 0.4
2014-Sep-08 21:32N 35°35' E 139°52'0 0.0
2014-Sep-08 20:29N 35°35' E 139°52'0 0.0
2014-Sep-08 19:32N 35°35' E 139°52'0 0.0
2014-Sep-08 18:32N 35°35' E 139°52'0 0.0
2014-Sep-08 17:26N 35°35' E 139°52'0 0.0
2014-Sep-08 16:32N 35°35' E 139°52'0 0.0
2014-Sep-08 15:32N 35°35' E 139°52'0 0.0
2014-Sep-08 14:32N 35°35' E 139°52'0 0.1
2014-Sep-08 13:26N 35°35' E 139°52'0 0.0
2014-Sep-08 12:26N 35°35' E 139°52'0 0.1
2014-Sep-08 11:32N 35°35' E 139°52'0 0.0
2014-Sep-08 10:29N 35°35' E 139°52'0 0.1
2014-Sep-08 09:29N 35°35' E 139°52'0 0.1
2014-Sep-08 08:32N 35°35' E 139°52'0 0.0
2014-Sep-08 07:32N 35°35' E 139°52'0 0.0
2014-Sep-08 06:32N 35°35' E 139°52'3 3.3
2014-Sep-08 05:33N 35°35' E 139°56'8 7.8
2014-Sep-08 04:33N 35°37' E 140°05'0 0.0
2014-Sep-08 03:30N 35°37' E 140°05'0 0.0
2014-Sep-08 02:33N 35°37' E 140°05'0 0.0
2014-Sep-08 01:33N 35°37' E 140°05'0 0.0
2014-Sep-08 00:33N 35°37' E 140°05'2 1.8
2014-Sep-07 23:33N 35°35' E 140°04'1110.2
2014-Sep-07 22:26N 35°29' E 139°52'9 9.6
2014-Sep-07 21:33N 35°22' E 139°45'9 8.9
2014-Sep-07 20:33N 35°13' E 139°47'1211.5
2014-Sep-07 19:33N 35°02' E 139°45'  
Track history (hours):
 
Tides and Currents Weather Stations Pressure Air Temp Water Temp Dewpoint Dewpoint Depression Visibility Wind Speed Wind Dir Waves Ship Positions

Houwa Maru

Last reported at 2014-Sep-14 22:20 UTC. Time now 2014-Sep-18 13:43 UTC.
Position N 35°60' E 140°43'.

Length 76 m.

Type: Ship. MMSI: 431500378.

Date/timePositionNaut miles runAvg speedWind from/ knotsBaromVisibWave heightAir tempDewpointWater temp
2014-Sep-14 22:20N 35°60' E 140°43'0 0.0
2014-Sep-14 21:23N 35°60' E 140°43'0 0.0
2014-Sep-14 20:32N 35°60' E 140°43'0 0.0
2014-Sep-14 19:32N 35°60' E 140°43'0 0.0
2014-Sep-14 18:22N 35°60' E 140°43'0 0.0
2014-Sep-14 17:31N 35°60' E 140°43'0 0.0
2014-Sep-14 16:29N 35°60' E 140°43'0 0.0
2014-Sep-14 15:33N 35°60' E 140°43'  
2014-Sep-11 03:31N 35°02' E 140°12'24 6.1
2014-Sep-10 23:33N 35°14' E 139°46'5 0.9
2014-Sep-10 17:29N 35°17' E 139°41'0 0.0
2014-Sep-10 12:29N 35°17' E 139°41'0 0.0
2014-Sep-10 11:17N 35°17' E 139°41'0 0.0
2014-Sep-10 10:29N 35°17' E 139°41'0 0.0
2014-Sep-10 09:29N 35°17' E 139°41'0 0.0
2014-Sep-10 08:29N 35°17' E 139°41'0 0.0
2014-Sep-10 07:29N 35°17' E 139°41'0 0.0
2014-Sep-10 01:29N 35°17' E 139°41'2 1.8
2014-Sep-10 00:08N 35°19' E 139°40'0 0.0
2014-Sep-09 23:20N 35°19' E 139°40'0 0.0
2014-Sep-09 21:26N 35°19' E 139°40'0 0.4
2014-Sep-09 20:22N 35°19' E 139°40'0 0.1
2014-Sep-09 19:11N 35°19' E 139°40'0 0.0
2014-Sep-09 15:32N 35°19' E 139°40'0 0.0
2014-Sep-09 13:26N 35°19' E 139°40'3 0.5
2014-Sep-09 07:33N 35°22' E 139°42'1111.5
2014-Sep-09 06:33N 35°31' E 139°50'7 6.5
2014-Sep-09 05:31N 35°38' E 139°48'0 0.0
2014-Sep-09 04:19N 35°38' E 139°48'0 0.0
2014-Sep-09 03:31N 35°38' E 139°48'0 0.1
2014-Sep-09 02:31N 35°38' E 139°48'0 0.0
2014-Sep-09 01:22N 35°38' E 139°48'0 0.1
2014-Sep-09 00:29N 35°38' E 139°48'0 0.1
2014-Sep-08 23:32N 35°38' E 139°48'4 3.6
2014-Sep-08 22:33N 35°35' E 139°51'0 0.4
2014-Sep-08 21:32N 35°35' E 139°52'0 0.0
2014-Sep-08 20:29N 35°35' E 139°52'0 0.0
2014-Sep-08 19:32N 35°35' E 139°52'0 0.0
2014-Sep-08 18:32N 35°35' E 139°52'0 0.0
2014-Sep-08 17:26N 35°35' E 139°52'0 0.0
2014-Sep-08 16:32N 35°35' E 139°52'0 0.0
2014-Sep-08 15:32N 35°35' E 139°52'0 0.0
2014-Sep-08 14:32N 35°35' E 139°52'0 0.1
2014-Sep-08 13:26N 35°35' E 139°52'0 0.0
2014-Sep-08 12:26N 35°35' E 139°52'0 0.1
2014-Sep-08 11:32N 35°35' E 139°52'0 0.0
2014-Sep-08 10:29N 35°35' E 139°52'0 0.1
2014-Sep-08 09:29N 35°35' E 139°52'0 0.1
2014-Sep-08 08:32N 35°35' E 139°52'0 0.0
2014-Sep-08 07:32N 35°35' E 139°52'0 0.0
2014-Sep-08 06:32N 35°35' E 139°52'3 3.3
2014-Sep-08 05:33N 35°35' E 139°56'8 7.8
2014-Sep-08 04:33N 35°37' E 140°05'0 0.0
2014-Sep-08 03:30N 35°37' E 140°05'0 0.0
2014-Sep-08 02:33N 35°37' E 140°05'0 0.0
2014-Sep-08 01:33N 35°37' E 140°05'0 0.0
2014-Sep-08 00:33N 35°37' E 140°05'2 1.8
2014-Sep-07 23:33N 35°35' E 140°04'1110.2
2014-Sep-07 22:26N 35°29' E 139°52'9 9.6
2014-Sep-07 21:33N 35°22' E 139°45'9 8.9
2014-Sep-07 20:33N 35°13' E 139°47'1211.5
2014-Sep-07 19:33N 35°02' E 139°45'  

Dump ship's entire track history